createdAt,value
2022-09-06T00:00:58.112Z,5.85
2022-09-06T00:03:25.020Z,6.85
2022-09-06T00:05:51.585Z,8.50
2022-09-06T00:08:18.104Z,6.68
2022-09-06T00:10:44.603Z,5.93
2022-09-06T00:13:11.518Z,4.25
2022-09-06T00:15:38.043Z,6.70
2022-09-06T00:18:06.502Z,9.98
2022-09-06T00:20:34.603Z,5.73
2022-09-06T00:23:03.427Z,5.88
2022-09-06T00:25:31.189Z,3.38
2022-09-06T00:28:00.629Z,4.30
2022-09-06T00:30:28.884Z,5.38
2022-09-06T00:32:56.323Z,4.50
2022-09-06T00:35:26.580Z,5.40
2022-09-06T00:37:57.805Z,5.43
2022-09-06T00:40:24.287Z,3.45
2022-09-06T00:42:51.685Z,5.57
2022-09-06T00:45:19.039Z,5.40
2022-09-06T00:47:45.870Z,5.30
2022-09-06T00:50:15.307Z,3.28
2022-09-06T00:52:45.545Z,10.75
2022-09-06T00:55:12.895Z,9.05
2022-09-06T00:57:39.888Z,5.28
2022-09-06T01:00:09.778Z,7.88
2022-09-06T01:02:36.835Z,3.95
2022-09-06T01:05:05.395Z,6.40
2022-09-06T01:07:53.884Z,7.27
2022-09-06T01:11:10.147Z,7.72
2022-09-06T01:14:15.022Z,5.38
2022-09-06T01:17:16.738Z,5.72
2022-09-06T01:19:58.672Z,6.35
2022-09-06T01:22:48.253Z,3.40
2022-09-06T01:25:20.861Z,3.85
2022-09-06T01:28:18.051Z,5.43
2022-09-06T01:30:51.939Z,5.50
2022-09-06T01:33:29.398Z,4.93
2022-09-06T01:36:06.926Z,4.28
2022-09-06T01:38:34.095Z,7.15
2022-09-06T01:41:00.555Z,4.72
2022-09-06T01:43:31.815Z,4.60
2022-09-06T01:46:07.328Z,4.45
2022-09-06T01:48:33.846Z,5.93
2022-09-06T01:51:19.581Z,5.45
2022-09-06T01:54:17.865Z,5.90
2022-09-06T01:57:06.088Z,4.63
2022-09-06T02:00:03.614Z,5.30
2022-09-06T02:02:32.917Z,4.97
2022-09-06T02:07:38.865Z,6.03
2022-09-06T02:10:10.672Z,4.60
2022-09-06T02:12:41.214Z,8.10
2022-09-06T02:15:22.957Z,8.35
2022-09-06T02:18:06.125Z,6.95
2022-09-06T02:20:38.226Z,6.75
2022-09-06T02:23:06.956Z,7.70
2022-09-06T02:25:44.158Z,7.28
2022-09-06T02:28:12.692Z,8.18
2022-09-06T02:30:45.136Z,7.47
2022-09-06T02:33:18.750Z,7.53
2022-09-06T02:35:49.508Z,5.05
2022-09-06T02:38:17.012Z,4.10
2022-09-06T02:40:45.646Z,6.47
2022-09-06T02:43:12.217Z,6.75
2022-09-06T02:45:38.800Z,7.03
2022-09-06T02:48:05.423Z,4.55
2022-09-06T02:50:31.990Z,4.68
2022-09-06T02:53:09.971Z,6.28
2022-09-06T02:55:37.377Z,5.22
2022-09-06T02:58:05.389Z,5.95
2022-09-06T03:00:32.684Z,4.10
2022-09-06T03:02:59.318Z,6.07
2022-09-06T03:05:27.792Z,4.97
2022-09-06T03:07:55.020Z,7.73
2022-09-06T03:10:23.193Z,6.35
2022-09-06T03:12:49.686Z,4.32
2022-09-06T03:15:16.978Z,4.28
2022-09-06T03:17:43.611Z,6.72
2022-09-06T03:20:13.762Z,5.78
2022-09-06T03:22:41.182Z,4.30
2022-09-06T03:25:09.586Z,5.45
2022-09-06T03:27:36.781Z,5.47
2022-09-06T03:30:04.935Z,6.13
2022-09-06T03:32:31.452Z,6.35
2022-09-06T03:34:58.175Z,8.52
2022-09-06T03:37:24.706Z,4.18
2022-09-06T03:39:51.283Z,3.75
2022-09-06T03:42:17.957Z,5.55
2022-09-06T03:44:44.430Z,5.38
2022-09-06T03:47:10.893Z,5.40
2022-09-06T03:49:37.394Z,7.40
2022-09-06T03:52:04.104Z,4.18
2022-09-06T03:54:30.858Z,11.90
2022-09-06T03:56:57.305Z,5.03
2022-09-06T03:59:23.828Z,5.13
2022-09-06T04:01:50.355Z,4.53
2022-09-06T04:04:16.842Z,4.78
2022-09-06T04:06:43.330Z,7.45
2022-09-06T04:09:09.942Z,9.07
2022-09-06T04:11:36.461Z,5.55
2022-09-06T04:14:02.945Z,4.40
2022-09-06T04:16:29.512Z,4.20
2022-09-06T04:18:56.056Z,4.00
2022-09-06T04:21:22.507Z,4.25
2022-09-06T04:23:49.179Z,4.90
2022-09-06T04:26:15.713Z,6.70
2022-09-06T04:28:42.214Z,6.80
2022-09-06T04:31:08.732Z,5.28
2022-09-06T04:33:37.165Z,5.15
2022-09-06T04:36:06.887Z,4.45
2022-09-06T04:38:44.865Z,4.50
2022-09-06T04:41:13.811Z,5.57
2022-09-06T04:43:40.352Z,5.55
2022-09-06T04:46:15.737Z,4.80
2022-09-06T04:48:42.169Z,4.90
2022-09-06T04:51:08.658Z,5.85
2022-09-06T04:53:35.126Z,4.53
2022-09-06T04:56:01.843Z,10.48
2022-09-06T04:58:28.428Z,6.90
2022-09-06T05:00:55.113Z,5.88
2022-09-06T05:03:21.632Z,5.28
2022-09-06T05:05:48.179Z,10.52
2022-09-06T05:08:14.979Z,10.07
2022-09-06T05:10:41.466Z,5.35
2022-09-06T05:13:08.005Z,9.00
2022-09-06T05:15:34.551Z,8.57
2022-09-06T05:18:03.870Z,8.95
2022-09-06T05:23:02.137Z,9.45
2022-09-06T05:25:28.686Z,5.50
2022-09-06T05:27:55.211Z,6.22
2022-09-06T05:30:21.778Z,5.45
2022-09-06T05:32:48.287Z,4.60
2022-09-06T05:35:14.923Z,6.97
2022-09-06T05:37:41.369Z,6.95
2022-09-06T05:40:08.803Z,6.78
2022-09-06T05:42:35.395Z,5.57
2022-09-06T05:45:02.365Z,10.00
2022-09-06T05:47:31.124Z,6.57
2022-09-06T05:49:57.817Z,4.30
2022-09-06T05:52:24.444Z,7.78
2022-09-06T05:54:51.008Z,4.40
2022-09-06T05:57:17.554Z,6.15
2022-09-06T05:59:44.101Z,5.20
2022-09-06T06:02:10.741Z,7.03
2022-09-06T06:04:37.253Z,9.43
2022-09-06T06:07:03.801Z,8.23
2022-09-06T06:09:30.297Z,6.78
2022-09-06T06:11:56.809Z,4.70
2022-09-06T06:14:23.550Z,6.38
2022-09-06T06:16:50.153Z,11.65
2022-09-06T06:19:16.692Z,7.82
2022-09-06T06:21:43.807Z,7.55
2022-09-06T06:24:10.579Z,5.78
2022-09-06T06:26:37.303Z,8.82
2022-09-06T06:29:05.831Z,7.88
2022-09-06T06:31:33.352Z,4.27
2022-09-06T06:34:02.766Z,5.47
2022-09-06T06:36:31.551Z,8.55
2022-09-06T06:38:58.513Z,9.35
2022-09-06T06:41:28.089Z,8.75
2022-09-06T06:43:56.612Z,9.35
2022-09-06T06:46:25.441Z,13.57
2022-09-06T06:48:55.230Z,12.93
2022-09-06T06:51:24.415Z,15.18
2022-09-06T06:53:51.564Z,16.20
2022-09-06T06:56:29.642Z,11.77
2022-09-06T06:58:59.096Z,13.73
2022-09-06T07:01:27.840Z,13.45
2022-09-06T07:03:54.539Z,6.32
2022-09-06T07:09:08.863Z,14.10
2022-09-06T07:11:35.437Z,11.32
2022-09-06T07:14:02.086Z,7.47
2022-09-06T07:16:30.051Z,8.60
2022-09-06T07:18:56.688Z,14.85
2022-09-06T07:21:42.232Z,11.40
2022-09-06T07:24:09.606Z,10.20
2022-09-06T07:26:38.200Z,7.32
2022-09-06T07:29:06.240Z,15.52
2022-09-06T07:34:21.051Z,10.35
2022-09-06T07:36:48.507Z,14.25
2022-09-06T07:39:15.355Z,16.17
2022-09-06T07:41:43.079Z,21.60
2022-09-06T07:44:09.624Z,15.75
2022-09-06T07:46:36.367Z,13.27
2022-09-06T07:49:04.790Z,10.05
2022-09-06T07:51:31.986Z,9.70
2022-09-06T07:54:19.402Z,13.57
2022-09-06T07:56:45.438Z,11.77
2022-09-06T07:59:11.993Z,15.65
2022-09-06T08:01:39.984Z,17.08
2022-09-06T08:04:14.912Z,8.45
2022-09-06T08:09:34.526Z,18.25
2022-09-06T08:12:06.644Z,10.20
2022-09-06T08:14:34.083Z,13.07
2022-09-06T08:17:00.721Z,11.63
2022-09-06T08:19:27.169Z,7.65
2022-09-06T08:21:57.006Z,10.68
2022-09-06T08:24:23.526Z,11.63
2022-09-06T08:26:50.245Z,9.57
2022-09-06T08:29:17.091Z,11.32
2022-09-06T08:31:45.119Z,8.27
2022-09-06T08:34:15.303Z,10.75
2022-09-06T08:36:42.404Z,9.20
2022-09-06T08:39:10.259Z,9.10
2022-09-06T08:42:03.090Z,10.30
2022-09-06T08:47:24.315Z,5.88
2022-09-06T08:49:56.782Z,11.10
2022-09-06T08:53:15.552Z,6.78
2022-09-06T08:55:39.054Z,11.02
2022-09-06T08:58:29.916Z,12.88
2022-09-06T09:01:19.639Z,8.23
2022-09-06T09:03:47.132Z,8.68
2022-09-06T09:06:13.642Z,9.85
2022-09-06T09:08:55.415Z,6.32
2022-09-06T09:11:25.427Z,7.63
2022-09-06T09:14:08.409Z,5.45
2022-09-06T09:16:35.109Z,10.18
2022-09-06T09:19:04.097Z,10.52
2022-09-06T09:21:37.847Z,6.20
2022-09-06T09:24:10.420Z,9.55
2022-09-06T09:27:02.724Z,5.82
2022-09-06T09:29:33.204Z,5.35
2022-09-06T09:32:03.364Z,5.70
2022-09-06T09:34:34.853Z,8.63
2022-09-06T09:40:00.728Z,7.45
2022-09-06T09:42:34.998Z,4.85
2022-09-06T09:45:08.168Z,6.82
2022-09-06T09:47:34.630Z,5.28
2022-09-06T09:50:01.503Z,5.43
2022-09-06T09:52:30.895Z,8.52
2022-09-06T09:55:03.390Z,3.85
2022-09-06T09:57:46.312Z,5.43
2022-09-06T10:00:13.990Z,3.85
2022-09-06T10:02:42.973Z,5.70
2022-09-06T10:05:12.237Z,6.43
2022-09-06T10:07:45.844Z,3.85
2022-09-06T10:10:22.950Z,2.60
2022-09-06T10:13:05.284Z,5.78
2022-09-06T10:15:34.437Z,4.40
2022-09-06T10:20:44.284Z,3.08
2022-09-06T10:26:14.677Z,6.90
2022-09-06T10:28:47.105Z,3.25
2022-09-06T10:31:45.596Z,4.30
2022-09-06T10:34:26.967Z,7.50
2022-09-06T10:37:24.440Z,6.05
2022-09-06T10:39:56.360Z,8.20
2022-09-06T10:42:48.743Z,6.25
2022-09-06T10:45:17.914Z,4.35
2022-09-06T10:50:17.407Z,3.97
2022-09-06T10:52:47.060Z,6.57
2022-09-06T10:55:17.548Z,8.88
2022-09-06T11:00:46.750Z,7.03
2022-09-06T11:03:57.020Z,5.68
2022-09-06T11:06:31.591Z,5.93
2022-09-06T11:09:16.198Z,2.45
2022-09-06T11:11:48.816Z,5.10
2022-09-06T11:14:15.917Z,5.10
2022-09-06T11:17:05.604Z,3.47
2022-09-06T11:19:42.750Z,2.58
2022-09-06T11:22:32.918Z,4.65
2022-09-06T11:25:37.308Z,2.78
2022-09-06T11:28:08.602Z,6.60
2022-09-06T11:30:35.234Z,3.38
2022-09-06T11:33:22.747Z,2.65
2022-09-06T11:35:49.268Z,3.10
2022-09-06T11:38:18.662Z,2.85
2022-09-06T11:40:48.288Z,4.13
2022-09-06T11:43:35.742Z,3.13
2022-09-06T11:46:02.300Z,5.40
2022-09-06T11:48:59.549Z,3.85
2022-09-06T11:51:43.917Z,4.45
2022-09-06T11:54:16.472Z,4.20
2022-09-06T11:56:52.940Z,4.72
2022-09-06T11:59:19.445Z,5.00
2022-09-06T12:02:02.799Z,7.18
2022-09-06T12:05:09.376Z,4.90
2022-09-06T12:07:37.831Z,2.53
2022-09-06T12:10:30.181Z,2.60
2022-09-06T12:12:57.740Z,4.32
2022-09-06T12:15:26.699Z,4.45
2022-09-06T12:20:54.451Z,2.30
2022-09-06T12:23:40.742Z,4.57
2022-09-06T12:26:12.082Z,1.40
2022-09-06T12:28:51.415Z,2.58
2022-09-06T12:31:29.644Z,4.97
2022-09-06T12:33:57.530Z,3.08
2022-09-06T12:36:31.067Z,4.45
2022-09-06T12:39:01.748Z,4.80
2022-09-06T12:41:38.359Z,2.08
2022-09-06T12:44:08.403Z,1.45
2022-09-06T12:46:36.149Z,2.25
2022-09-06T12:49:05.340Z,4.68
2022-09-06T12:51:32.910Z,2.45
2022-09-06T12:54:02.793Z,4.88
2022-09-06T12:56:32.862Z,1.80
2022-09-06T12:59:19.291Z,3.03
2022-09-06T13:02:04.927Z,2.75
2022-09-06T13:04:41.645Z,4.97
2022-09-06T13:07:14.657Z,2.45
2022-09-06T13:09:46.576Z,2.15
2022-09-06T13:12:33.442Z,3.42
2022-09-06T13:15:14.358Z,2.47
2022-09-06T13:17:44.119Z,2.83
2022-09-06T13:20:21.608Z,3.55
2022-09-06T13:22:50.755Z,5.25
2022-09-06T13:25:20.964Z,1.65
2022-09-06T13:27:58.185Z,1.60
2022-09-06T13:30:30.540Z,2.97
2022-09-06T13:32:57.288Z,4.25
2022-09-06T13:35:26.068Z,7.65
2022-09-06T13:41:16.121Z,4.78
2022-09-06T13:43:45.490Z,2.30
2022-09-06T13:46:12.099Z,4.70
2022-09-06T13:48:39.578Z,2.45
2022-09-06T13:51:08.048Z,3.33
2022-09-06T13:53:34.883Z,1.70
2022-09-06T13:56:01.504Z,3.80
2022-09-06T13:58:29.423Z,2.63
2022-09-06T14:00:56.674Z,1.50
2022-09-06T14:03:32.819Z,9.93
2022-09-06T14:06:00.546Z,1.88
2022-09-06T14:08:38.824Z,6.10
2022-09-06T14:11:15.083Z,1.70
2022-09-06T14:13:41.811Z,3.03
2022-09-06T14:16:08.520Z,3.63
2022-09-06T14:18:35.096Z,4.03
2022-09-06T14:21:01.843Z,3.78
2022-09-06T14:23:28.613Z,3.85
2022-09-06T14:25:56.623Z,3.05
2022-09-06T14:28:24.362Z,3.80
2022-09-06T14:30:52.078Z,2.60
2022-09-06T14:33:19.309Z,3.90
2022-09-06T14:35:45.787Z,2.72
2022-09-06T14:38:12.614Z,2.05
2022-09-06T14:40:40.158Z,1.92
2022-09-06T14:43:07.007Z,6.53
2022-09-06T14:45:34.733Z,3.15
2022-09-06T14:48:02.225Z,1.30
2022-09-06T14:50:30.066Z,2.97
2022-09-06T14:52:56.739Z,5.45
2022-09-06T14:55:23.573Z,2.67
2022-09-06T14:57:50.460Z,2.30
2022-09-06T15:00:17.781Z,3.30
2022-09-06T15:02:44.387Z,5.07
2022-09-06T15:05:10.875Z,3.58
2022-09-06T15:07:38.172Z,2.30
2022-09-06T15:10:05.085Z,2.95
2022-09-06T15:12:33.210Z,2.55
2022-09-06T15:14:59.871Z,3.10
2022-09-06T15:17:26.336Z,6.05
2022-09-06T15:19:54.270Z,4.07
2022-09-06T15:22:20.788Z,5.67
2022-09-06T15:24:47.453Z,4.53
2022-09-06T15:27:14.030Z,3.72
2022-09-06T15:29:41.146Z,5.50
2022-09-06T15:32:07.865Z,5.45
2022-09-06T15:34:35.188Z,3.20
2022-09-06T15:37:01.721Z,3.10
2022-09-06T15:39:28.270Z,1.95
2022-09-06T15:41:54.897Z,2.65
2022-09-06T15:44:21.667Z,5.30
2022-09-06T15:46:53.905Z,4.28
2022-09-06T15:49:27.784Z,4.85
2022-09-06T15:52:00.828Z,3.00
2022-09-06T15:54:46.867Z,2.95
2022-09-06T15:57:16.169Z,3.75
2022-09-06T15:59:42.713Z,2.90
2022-09-06T16:02:09.867Z,3.53
2022-09-06T16:04:36.501Z,9.57
2022-09-06T16:07:03.437Z,3.55
2022-09-06T16:09:29.976Z,5.28
2022-09-06T16:11:56.542Z,4.93
2022-09-06T16:14:23.439Z,8.63
2022-09-06T16:16:53.855Z,4.35
2022-09-06T16:19:20.564Z,5.90
2022-09-06T16:21:47.324Z,4.78
2022-09-06T16:24:14.403Z,5.30
2022-09-06T16:26:43.309Z,4.90
2022-09-06T16:29:11.437Z,7.78
2022-09-06T16:31:40.467Z,10.77
2022-09-06T16:34:08.312Z,6.32
2022-09-06T16:36:35.204Z,3.80
2022-09-06T16:39:01.874Z,5.30
2022-09-06T16:41:36.060Z,9.05
2022-09-06T16:44:02.638Z,9.90
2022-09-06T16:46:29.612Z,10.10
2022-09-06T16:49:00.988Z,8.48
2022-09-06T16:51:29.141Z,4.55
2022-09-06T16:53:56.501Z,5.37
2022-09-06T16:56:26.265Z,8.90
2022-09-06T16:58:55.010Z,12.02
2022-09-06T17:01:22.495Z,6.47
2022-09-06T17:03:50.077Z,8.48
2022-09-06T17:06:17.985Z,5.82
2022-09-06T17:08:45.229Z,6.43
2022-09-06T17:11:15.576Z,4.47
2022-09-06T17:13:43.811Z,5.78
2022-09-06T17:16:29.333Z,9.77
2022-09-06T17:18:56.053Z,12.32
2022-09-06T17:21:23.804Z,4.82
2022-09-06T17:23:51.262Z,7.85
2022-09-06T17:26:21.092Z,10.95
2022-09-06T17:28:49.601Z,8.15
2022-09-06T17:31:21.120Z,6.25
2022-09-06T17:33:52.263Z,6.05
2022-09-06T17:36:27.752Z,7.43
2022-09-06T17:38:59.902Z,7.85
2022-09-06T17:41:28.291Z,8.10
2022-09-06T17:43:55.396Z,9.98
2022-09-06T17:46:27.923Z,7.15
2022-09-06T17:48:55.894Z,9.45
2022-09-06T17:51:22.891Z,11.02
2022-09-06T17:53:49.470Z,7.22
2022-09-06T17:56:17.840Z,6.82
2022-09-06T17:58:52.272Z,8.63
2022-09-06T18:01:18.872Z,7.03
2022-09-06T18:03:47.022Z,5.47
2022-09-06T18:06:16.604Z,10.13
2022-09-06T18:08:44.062Z,8.20
2022-09-06T18:11:13.436Z,7.97
2022-09-06T18:13:42.038Z,7.55
2022-09-06T18:16:10.213Z,4.53
2022-09-06T18:18:37.244Z,7.30
2022-09-06T18:21:06.904Z,9.35
2022-09-06T18:23:34.650Z,5.65
2022-09-06T18:26:04.757Z,10.38
2022-09-06T18:28:32.942Z,10.65
2022-09-06T18:31:11.270Z,7.90
2022-09-06T18:33:38.870Z,9.50
2022-09-06T18:36:07.052Z,7.55
2022-09-06T18:38:38.682Z,6.05
2022-09-06T18:41:07.441Z,6.43
2022-09-06T18:43:39.809Z,6.45
2022-09-06T18:46:17.842Z,7.68
2022-09-06T18:48:44.450Z,9.18
2022-09-06T18:51:14.742Z,8.63
2022-09-06T18:53:45.991Z,8.70
2022-09-06T18:56:14.600Z,8.27
2022-09-06T18:58:42.327Z,6.53
2022-09-06T19:01:11.557Z,7.13
2022-09-06T19:03:39.348Z,6.28
2022-09-06T19:06:11.584Z,6.20
2022-09-06T19:08:38.609Z,8.30
2022-09-06T19:11:09.110Z,6.10
2022-09-06T19:13:37.896Z,9.20
2022-09-06T19:16:05.703Z,13.57
2022-09-06T19:18:34.479Z,6.85
2022-09-06T19:21:06.578Z,4.90
2022-09-06T19:23:35.293Z,7.65
2022-09-06T19:26:11.462Z,6.88
2022-09-06T19:28:38.552Z,6.25
2022-09-06T19:31:13.429Z,8.15
2022-09-06T19:33:41.553Z,9.57
2022-09-06T19:36:11.853Z,7.18
2022-09-06T19:39:02.698Z,9.15
2022-09-06T19:41:28.537Z,5.80
2022-09-06T19:43:56.534Z,8.25
2022-09-06T19:46:23.857Z,7.30
2022-09-06T19:48:53.565Z,7.97
2022-09-06T19:51:20.699Z,5.45
2022-09-06T19:53:53.166Z,4.60
2022-09-06T19:56:31.716Z,6.75
2022-09-06T19:59:00.591Z,12.10
2022-09-06T20:01:29.662Z,6.53
2022-09-06T20:03:58.665Z,8.00
2022-09-06T20:06:26.251Z,8.57
2022-09-06T20:09:10.984Z,9.80
2022-09-06T20:11:38.752Z,7.22
2022-09-06T20:14:05.631Z,8.25
2022-09-06T20:16:32.724Z,8.20
2022-09-06T20:19:00.331Z,7.63
2022-09-06T20:21:28.886Z,10.18
2022-09-06T20:23:57.659Z,11.00
2022-09-06T20:26:25.875Z,5.53
2022-09-06T20:28:57.314Z,8.50
2022-09-06T20:31:24.780Z,7.60
2022-09-06T20:33:51.899Z,9.55
2022-09-06T20:36:18.792Z,6.72
2022-09-06T20:38:46.658Z,10.18
2022-09-06T20:41:16.343Z,6.18
2022-09-06T20:43:43.402Z,7.28
2022-09-06T20:46:18.116Z,4.90
2022-09-06T20:48:45.865Z,6.72
2022-09-06T20:51:19.249Z,8.18
2022-09-06T20:53:53.439Z,5.05
2022-09-06T20:56:22.806Z,9.07
2022-09-06T20:58:55.472Z,10.20
2022-09-06T21:01:25.186Z,7.25
2022-09-06T21:03:54.706Z,5.63
2022-09-06T21:06:22.505Z,11.73
2022-09-06T21:08:49.900Z,9.38
2022-09-06T21:11:16.990Z,10.23
2022-09-06T21:13:44.186Z,9.65
2022-09-06T21:16:11.005Z,6.88
2022-09-06T21:18:37.594Z,8.57
2022-09-06T21:21:06.838Z,8.13
2022-09-06T21:26:09.924Z,5.30
2022-09-06T21:28:38.823Z,6.18
2022-09-06T21:31:05.997Z,5.90
2022-09-06T21:33:33.198Z,4.82
2022-09-06T21:36:07.815Z,8.15
2022-09-06T21:38:36.087Z,4.80
2022-09-06T21:41:04.387Z,6.88
2022-09-06T21:43:31.717Z,9.98
2022-09-06T21:46:02.830Z,6.60
2022-09-06T21:48:29.590Z,8.13
2022-09-06T21:50:56.709Z,9.77
2022-09-06T21:53:26.019Z,10.63
2022-09-06T21:58:19.687Z,10.65
2022-09-06T22:00:52.405Z,11.30
2022-09-06T22:03:19.385Z,11.13
2022-09-06T22:05:46.103Z,16.63
2022-09-06T22:08:12.934Z,15.88
2022-09-06T22:10:39.483Z,12.65
2022-09-06T22:13:06.079Z,14.48
2022-09-06T22:15:32.606Z,13.10
2022-09-06T22:17:59.231Z,17.58
2022-09-06T22:20:25.786Z,18.23
2022-09-06T22:22:52.329Z,18.33
2022-09-06T22:25:18.861Z,18.10
2022-09-06T22:27:46.401Z,13.50
2022-09-06T22:30:13.185Z,10.75
2022-09-06T22:32:40.088Z,15.73
2022-09-06T22:35:07.201Z,9.70
2022-09-06T22:37:33.798Z,9.27
2022-09-06T22:40:01.569Z,8.43
2022-09-06T22:42:28.373Z,13.65
2022-09-06T22:44:54.924Z,10.90
2022-09-06T22:47:21.809Z,14.50
2022-09-06T22:49:48.497Z,10.07
2022-09-06T22:52:15.186Z,18.25
2022-09-06T22:54:41.903Z,14.57
2022-09-06T22:57:08.599Z,10.30
2022-09-06T22:59:36.274Z,9.93
2022-09-06T23:02:03.676Z,11.57
2022-09-06T23:04:30.528Z,12.93
2022-09-06T23:06:57.045Z,13.77
2022-09-06T23:09:23.926Z,12.98
2022-09-06T23:11:50.480Z,15.48
2022-09-06T23:14:17.131Z,16.05
2022-09-06T23:16:43.642Z,15.23
2022-09-06T23:19:11.144Z,6.25
2022-09-06T23:21:37.660Z,8.25
2022-09-06T23:24:04.271Z,10.48
2022-09-06T23:26:32.765Z,10.15
2022-09-06T23:29:00.020Z,4.90
2022-09-06T23:31:31.310Z,9.68
2022-09-06T23:33:59.891Z,6.88
2022-09-06T23:36:26.807Z,7.07
2022-09-06T23:38:53.594Z,11.90
2022-09-06T23:41:20.357Z,9.60
2022-09-06T23:43:46.951Z,8.52
2022-09-06T23:46:14.838Z,6.07
2022-09-06T23:48:42.300Z,4.72
2022-09-06T23:51:09.726Z,9.63
2022-09-06T23:53:36.475Z,5.80
2022-09-06T23:56:03.714Z,5.50
2022-09-06T23:58:30.376Z,5.95
